createdAt,value
2019-02-15T00:09:55.836Z,21.9
2019-02-15T00:19:55.041Z,21.9
2019-02-15T00:29:54.248Z,21.8
2019-02-15T00:39:53.451Z,21.8
2019-02-15T00:49:52.657Z,21.8
2019-02-15T00:59:51.861Z,21.8
2019-02-15T01:09:51.068Z,21.8
2019-02-15T01:23:57.901Z,21.9
2019-02-15T01:33:57.100Z,21.9
2019-02-15T01:43:56.354Z,21.9
2019-02-15T01:53:55.511Z,21.8
2019-02-15T02:03:54.718Z,21.8
2019-02-15T02:13:53.923Z,21.9
2019-02-15T02:23:53.169Z,21.8
2019-02-15T02:33:52.461Z,21.8
2019-02-15T02:43:59.339Z,21.9
2019-02-15T02:53:51.043Z,21.9
2019-02-15T03:03:50.322Z,21.8
2019-02-15T03:13:49.609Z,21.8
2019-02-15T03:23:48.816Z,21.9
2019-02-15T03:32:11.484Z,21.9
2019-02-15T03:42:10.693Z,22
2019-02-15T03:52:09.904Z,21.8
2019-02-15T04:02:09.113Z,21.9
2019-02-15T04:12:08.322Z,21.9
2019-02-15T04:22:07.528Z,21.9
2019-02-15T04:32:06.793Z,21.9
2019-02-15T04:42:06.086Z,21.9
2019-02-15T04:52:05.371Z,21.8
2019-02-15T05:02:04.656Z,21.8
2019-02-15T05:12:03.947Z,21.8
2019-02-15T05:22:03.242Z,21.9
2019-02-15T05:32:02.449Z,21.8
2019-02-15T05:42:01.689Z,21.7
2019-02-15T05:52:00.870Z,21.6
2019-02-15T06:00:36.926Z,21.8
2019-02-15T06:10:29.907Z,21.8
2019-02-15T06:20:29.120Z,21.7
2019-02-15T06:30:28.329Z,21.6
2019-02-15T06:40:27.539Z,21.7
2019-02-15T06:50:26.747Z,22
2019-02-15T07:00:26.007Z,21.9
2019-02-15T07:10:25.296Z,21.8
2019-02-15T07:20:24.587Z,21.8
2019-02-15T07:30:23.878Z,21.6
2019-02-15T07:40:23.170Z,21.6
2019-02-15T07:50:22.465Z,21.6
2019-02-15T08:00:21.667Z,21.5
2019-02-15T08:10:20.874Z,21.5
2019-02-15T08:20:20.079Z,21.8
2019-02-15T08:30:19.288Z,21.9
2019-02-15T08:40:18.503Z,21.9
2019-02-15T08:50:17.701Z,21.8
2019-02-15T09:01:46.693Z,21.7
2019-02-15T09:11:45.898Z,21.6
2019-02-15T09:21:45.105Z,21.7
2019-02-15T09:31:44.311Z,22.1
2019-02-15T09:41:43.518Z,22.3
2019-02-15T09:51:42.724Z,22.3
2019-02-15T10:01:41.971Z,22.1
2019-02-15T10:11:41.264Z,22.1
2019-02-15T10:21:40.557Z,22.4
2019-02-15T10:31:39.863Z,22.3
2019-02-15T10:41:39.145Z,22.1
2019-02-15T10:51:38.482Z,22
2019-02-15T11:01:37.644Z,21.9
2019-02-15T11:11:36.851Z,21.8
2019-02-15T11:21:36.065Z,21.8
2019-02-15T11:31:35.274Z,21.8
2019-02-15T11:41:34.487Z,21.8
2019-02-15T11:51:33.698Z,21.7
2019-02-15T12:01:32.909Z,21.9
2019-02-15T12:11:32.117Z,21.9
2019-02-15T12:18:06.095Z,21.9
2019-02-15T12:28:05.250Z,22.3
2019-02-15T12:38:04.454Z,22.5
2019-02-15T12:48:03.661Z,22.3
2019-02-15T12:58:02.866Z,22.3
2019-02-15T13:08:02.071Z,22.1
2019-02-15T13:18:01.319Z,22.3
2019-02-15T13:28:00.608Z,22.3
2019-02-15T13:37:59.945Z,22.1
2019-02-15T13:47:59.184Z,21.9
2019-02-15T13:57:58.472Z,22.1
2019-02-15T14:07:57.757Z,22
2019-02-15T14:17:56.963Z,21.9
2019-02-15T14:27:56.216Z,21.8
2019-02-15T14:37:55.371Z,21.8
2019-02-15T14:47:55.422Z,22.1
2019-02-15T14:57:53.784Z,22.2
2019-02-15T15:07:52.991Z,22
2019-02-15T15:18:00.778Z,21.9
2019-02-15T15:27:51.408Z,21.8
2019-02-15T15:37:50.616Z,21.8
2019-02-15T15:47:49.825Z,21.7
2019-02-15T15:57:49.042Z,21.8
2019-02-15T16:07:48.244Z,22.1
2019-02-15T16:17:47.455Z,22.3
2019-02-15T16:27:46.666Z,22.3
2019-02-15T16:37:45.876Z,22.1
2019-02-15T16:47:45.089Z,21.9
2019-02-15T16:57:44.310Z,21.9
2019-02-15T17:07:07.907Z,21.8
2019-02-15T17:17:07.019Z,21.8
2019-02-15T17:27:06.236Z,21.8
2019-02-15T17:37:06.588Z,21.8
2019-02-15T17:47:04.675Z,21.9
2019-02-15T17:57:03.887Z,22
2019-02-15T18:07:03.149Z,21.9
2019-02-15T18:17:02.453Z,22.1
2019-02-15T18:27:01.754Z,22.1
2019-02-15T18:37:01.060Z,22.1
2019-02-15T18:50:46.773Z,22.1
2019-02-15T19:00:45.994Z,22.1
2019-02-15T19:10:45.217Z,22.3
2019-02-15T19:20:44.493Z,22.2
2019-02-15T19:30:43.657Z,22.1
2019-02-15T19:40:42.874Z,22
2019-02-15T19:50:42.139Z,21.9
2019-02-15T20:00:41.493Z,21.9
2019-02-15T20:10:40.743Z,22
2019-02-15T20:20:40.122Z,22.1
2019-02-15T20:30:39.348Z,22.1
2019-02-15T20:40:38.700Z,21.9
2019-02-15T20:50:37.910Z,21.9
2019-02-15T21:00:37.074Z,22.1
2019-02-15T21:10:02.257Z,22.1
2019-02-15T21:20:07.201Z,22.1
2019-02-15T21:30:00.682Z,22.1
2019-02-15T21:39:33.270Z,22
2019-02-15T21:49:32.481Z,21.9
2019-02-15T21:59:31.693Z,21.9
2019-02-15T22:09:30.906Z,21.9
2019-02-15T22:19:30.164Z,21.9
2019-02-15T22:29:29.325Z,22.1
2019-02-15T22:39:28.588Z,22
2019-02-15T22:49:27.879Z,22
2019-02-15T22:59:27.173Z,22.1
2019-02-15T23:09:26.471Z,22
2019-02-15T23:19:25.810Z,22
2019-02-15T23:29:25.060Z,22.1
2019-02-15T23:39:24.258Z,22
2019-02-15T23:49:23.467Z,22
2019-02-15T23:59:22.676Z,21.9
